Tiempo atmosférico en la estación meteorológica de Almudébar, Huesca (390 m.)



Fecha
DESCASC
Temp. máxima en grados centígrados (hora)
DESCASC
Temp. mínima en grados centígrados (hora)
DESCASC
Temp. media en grados centígrados
DESCASC
Racha de viento máxima en m/sg (hora)
DESCASC
Velocidad máxima media en intervalos de 10 minutos(hora)
DESCASC
Precipitaciones diarias en mm
DESCASC
Precipitaciones de 00:00 a 06:00 en mm
DESCASC
Precipitaciones de 06:00 a 12:00 en mm
DESCASC
Precipitaciones de 12:00 a 18:00 en mm
DESCASC
Precipitaciones de 18:00 a 24:00 en mm
DESCASC

Gráficas

Temp. máximas Temp. mínimas Temp. medias Precipitaciones Rachas de viento máximas Velocidades máximas media en intervalos de 10 minutos

Datos horarios

Fecha y hora oficial Temperatura (ºC) Velocidad del viento (km/h) Dirección del viento Racha (km/h) Dirección de racha Precipitación (mm) Presión (hPa) Tendencia (hPa) Humedad (%)
2018-01-20 23:00:00 11.6 20 Oeste 36 Oeste 0 -- -- 77
2018-01-20 22:00:00 11.3 19 Oeste 39 Oeste 0 -- -- 75
2018-01-20 21:00:00 10.7 17 Oeste 48 Oeste 0 -- -- 73
2018-01-20 20:00:00 11.2 19 Oeste 36 Oeste 0 -- -- 75
2018-01-20 19:00:00 10.5 19 Oeste 36 Oeste 0 -- -- 70
2018-01-20 18:00:00 11.4 18 Oeste 36 Oeste 0 -- -- 64
2018-01-20 17:00:00 12.9 26 Oeste 47 Oeste 0 -- -- 57
2018-01-20 16:00:00 13.6 26 Oeste 49 Oeste 0 -- -- 55
2018-01-20 15:00:00 13.1 24 Oeste 48 Oeste 0 -- -- 54
2018-01-20 14:00:00 12.2 23 Oeste 42 Oeste 0 -- -- 57
2018-01-20 13:00:00 11 21 Oeste 38 Oeste 0 -- -- 66
2018-01-20 12:00:00 9.4 16 Oeste 30 Oeste 0 -- -- 78
2018-01-20 11:00:00 7.5 16 Sudoeste 23 Sudoeste 0 -- -- 87
2018-01-20 10:00:00 5.3 16 Sudoeste 21 Sudoeste 0 -- -- 95
2018-01-20 09:00:00 3.4 8 Sudoeste 18 Sudoeste 0 -- -- 93
2018-01-20 08:00:00 4.3 12 Sudoeste 21 Oeste 0 -- -- 93
2018-01-20 07:00:00 4.1 5 Oeste 18 Sudoeste 0 -- -- 92
2018-01-20 06:00:00 5.2 8 Oeste 23 Oeste 0 -- -- 89
2018-01-20 05:00:00 6 19 Oeste 35 Oeste 0 -- -- 88
2018-01-20 04:00:00 5.7 15 Oeste 29 Oeste 0 -- -- 90
2018-01-20 03:00:00 5.9 11 Oeste 29 Oeste 0 -- -- 87
2018-01-20 02:00:00 6.1 16 Oeste 30 Oeste 0 -- -- 88
2018-01-20 01:00:00 6.2 14 Oeste 37 Oeste 0 -- -- 86
2018-01-20 00:00:00 6.7 20 Oeste 35 Oeste 0 -- -- 84
2018-01-19 23:00:00 6.7 17 Oeste 36 Oeste 0 -- -- 85
2018-01-19 22:00:00 6.9 12 Oeste 29 Oeste 0 -- -- 80
2018-01-19 21:00:00 7.5 17 Oeste 41 Oeste 0 -- -- 75
2018-01-19 20:00:00 9 23 Oeste 38 Oeste 0 -- -- 64
2018-01-19 19:00:00 9.1 13 Oeste 36 Oeste 0 -- -- 69
2018-01-19 18:00:00 10.7 23 Noroeste 34 Noroeste 0 -- -- 61
2018-01-19 17:00:00 13 27 Noroeste 42 Noroeste 0 -- -- 59
2018-01-19 16:00:00 14.7 18 Noroeste 46 Noroeste 0 -- -- 54
2018-01-19 15:00:00 14.8 30 Noroeste 55 Noroeste 0 -- -- 50
2018-01-19 14:00:00 15.1 33 Noroeste 51 Noroeste 0 -- -- 52
2018-01-19 13:00:00 14.9 26 Noroeste 44 Noroeste 0 -- -- 53
2018-01-19 12:00:00 13.7 34 Noroeste 49 Noroeste 0 -- -- 56
2018-01-19 11:00:00 10.5 18 Oeste 38 Oeste 0 -- -- 81
2018-01-19 10:00:00 7.4 16 Oeste 35 Oeste 0 -- -- 91
2018-01-19 09:00:00 6.2 14 Oeste 30 Oeste 0 -- -- 92
2018-01-19 08:00:00 5.8 15 Noroeste 31 Oeste 0 -- -- 93
2018-01-19 07:00:00 5.9 18 Noroeste 36 Oeste 0 -- -- 92
2018-01-19 06:00:00 6 16 Oeste 31 Oeste 0 -- -- 92
2018-01-19 05:00:00 6.1 12 Oeste 29 Oeste 0 -- -- 91
2018-01-19 04:00:00 5.7 13 Oeste 22 Oeste 0 -- -- 91
2018-01-19 03:00:00 5.3 15 Sudoeste 27 Sudoeste 0 -- -- 90
2018-01-19 02:00:00 5.7 14 Oeste 26 Oeste 0 -- -- 84
2018-01-19 01:00:00 5.9 13 Oeste 26 Oeste 0 -- -- 85
2018-01-19 00:00:00 5.9 11 Oeste 19 Oeste 0 -- -- 85
2018-01-18 23:00:00 6.2 5 Oeste 20 Noroeste 0 -- -- 82
2018-01-18 22:00:00 6.6 13 Noroeste 20 Noroeste 0 -- -- 81
2018-01-18 21:00:00 7.5 11 Oeste 18 Oeste 0 -- -- 76
2018-01-18 20:00:00 7.4 13 Noroeste 18 Oeste 0 -- -- 76
2018-01-18 19:00:00 9.2 10 Noroeste 24 Oeste 0 -- -- 66
2018-01-18 18:00:00 10.7 5 Oeste 21 Oeste 0 -- -- 64
2018-01-18 17:00:00 12.6 15 Sudoeste 26 Oeste 0 -- -- 59
2018-01-18 16:00:00 12.3 17 Oeste 25 Noroeste 0 -- -- 58
2018-01-18 15:00:00 11.5 12 Oeste 26 Noroeste 0 -- -- 64
2018-01-18 14:00:00 11 15 Oeste 24 Noroeste 0 -- -- 63
2018-01-18 13:00:00 9.1 10 Oeste 21 Noroeste 0 -- -- 73
2018-01-18 12:00:00 7.2 6 Sudoeste 16 Sudoeste 0 -- -- 80
2018-01-18 11:00:00 5 6 Oeste 14 Oeste 0 -- -- 91
2018-01-18 10:00:00 2.5 0 Calma 4 Sur 0 -- -- 94
2018-01-18 09:00:00 -0.1 2 Norte 5 Norte 0 -- -- 94
2018-01-18 08:00:00 -0.6 3 Oeste 10 Noroeste 0 -- -- 92
2018-01-18 07:00:00 -0.1 4 Norte 7 Norte 0 -- -- 93
2018-01-18 06:00:00 -0.5 0 Calma 6 Sudoeste 0 -- -- 91
2018-01-18 05:00:00 0.8 0 Calma 9 Sudoeste 0 -- -- 90
2018-01-18 04:00:00 2.3 4 Sudoeste 10 Oeste 0 -- -- 88
2018-01-18 03:00:00 3.4 3 Noroeste 17 Noroeste 0 -- -- 86
2018-01-18 02:00:00 4.2 10 Oeste 22 Oeste 0 -- -- 85
2018-01-18 01:00:00 4.6 10 Oeste 29 Oeste 0 -- -- 83
2018-01-18 00:00:00 5.1 19 Noroeste 30 Noroeste 0 -- -- 83
2018-01-17 23:00:00 5.4 15 Oeste 25 Oeste 0 -- -- 81
2018-01-17 22:00:00 5.8 16 Oeste 34 Oeste 0 -- -- 79
2018-01-17 21:00:00 6.6 23 Noroeste 56 Noroeste 0 -- -- 77
2018-01-17 20:00:00 7 30 Oeste 46 Oeste 0 -- -- 76
2018-01-17 19:00:00 7.5 29 Noroeste 39 Noroeste 0 -- -- 80
2018-01-17 18:00:00 8.2 19 Oeste 58 Oeste 0 -- -- 78
2018-01-17 17:00:00 9.8 40 Oeste 65 Oeste 0 -- -- 68
2018-01-17 16:00:00 10.6 36 Oeste 57 Oeste 0 -- -- 63
2018-01-17 15:00:00 11.8 33 Oeste 55 Oeste 0 -- -- 56
2018-01-17 14:00:00 12.3 33 Oeste 56 Oeste 0 -- -- 48
2018-01-17 13:00:00 11.8 40 Noroeste 62 Oeste 0 -- -- 49
2018-01-17 12:00:00 10.9 41 Oeste 64 Oeste 0 -- -- 61
2018-01-17 11:00:00 10.3 40 Oeste 62 Oeste 0 -- -- 65
2018-01-17 10:00:00 9.7 35 Oeste 63 Oeste 0 -- -- 66
2018-01-17 09:00:00 9.2 35 Noroeste 54 Noroeste 0 -- -- 71
2018-01-17 08:00:00 9.7 37 Oeste 61 Oeste 0 -- -- 68
2018-01-17 07:00:00 9.8 35 Noroeste 53 Noroeste 0 -- -- 73
2018-01-17 06:00:00 10.3 32 Oeste 51 Oeste 0 -- -- 74
2018-01-17 05:00:00 9 25 Oeste 40 Oeste 0 -- -- 86
2018-01-17 04:00:00 7.5 17 Oeste 30 Oeste 0 -- -- 91
2018-01-17 03:00:00 7.6 12 Oeste 28 Oeste 0 -- -- 90
2018-01-17 02:00:00 8.7 15 Oeste 27 Oeste 0 -- -- 87
2018-01-17 01:00:00 8.2 10 Oeste 24 Oeste 0 -- -- 89
2018-01-17 00:00:00 8 13 Oeste 24 Oeste 0 -- -- 89
2018-01-16 23:00:00 8.4 13 Oeste 30 Sudoeste 0 -- -- 87
2018-01-16 22:00:00 8.9 17 Oeste 29 Oeste 0 -- -- 88
2018-01-16 21:00:00 9 12 Oeste 27 Oeste 0 -- -- 87
2018-01-16 20:00:00 9.3 11 Oeste 28 Oeste 0 -- -- 85
2018-01-16 19:00:00 10.2 15 Oeste 28 Oeste 0 -- -- 83
2018-01-16 18:00:00 11.3 15 Oeste 39 Oeste 0 -- -- 77
2018-01-16 17:00:00 12.9 24 Oeste 44 Oeste 0 -- -- 72
2018-01-16 16:00:00 13.2 26 Oeste 45 Oeste 0 -- -- 71
2018-01-16 15:00:00 12.3 25 Oeste 43 Oeste 0 -- -- 74
2018-01-16 14:00:00 11.3 22 Oeste 44 Oeste 0 -- -- 77
2018-01-16 13:00:00 9.8 20 Oeste 43 Sudoeste 0 -- -- 78
2018-01-16 12:00:00 9 23 Oeste 41 Sudoeste 0 -- -- 78
2018-01-16 11:00:00 7.9 23 Oeste 39 Oeste 0 -- -- 81
2018-01-16 10:00:00 6.5 21 Oeste 32 Oeste 0 -- -- 82
2018-01-16 09:00:00 5.3 19 Oeste 33 Oeste 0 -- -- 84
2018-01-16 08:00:00 4.7 12 Oeste 26 Sudoeste 0 -- -- 84
2018-01-16 07:00:00 4 15 Sudoeste 26 Sudoeste 0 -- -- 86
2018-01-16 06:00:00 4.8 11 Oeste 24 Oeste 0 -- -- 84
2018-01-16 05:00:00 3.9 5 Sudoeste 18 Sudoeste 0 -- -- 87
2018-01-16 04:00:00 4.6 13 Sudoeste 23 Sudoeste 0 -- -- 87
2018-01-16 03:00:00 5 16 Sudoeste 22 Sudoeste 0 -- -- 86
2018-01-16 02:00:00 5.1 13 Sudoeste 17 Oeste 0 -- -- 87
2018-01-16 01:00:00 5.4 5 Oeste 10 Oeste 0 -- -- 88
2018-01-16 00:00:00 5 5 Noroeste 9 Noroeste 0 -- -- 90
2018-01-15 23:00:00 4.8 6 Noroeste 11 Noroeste 0 -- -- 90
2018-01-15 22:00:00 4.2 3 Oeste 5 Oeste 0 -- -- 87
2018-01-15 21:00:00 4.8 0 Calma 4 Oeste 0 -- -- 86
2018-01-15 20:00:00 5.7 3 Oeste 7 Sudoeste 0 -- -- 83
2018-01-15 19:00:00 6.2 4 Oeste 8 Sudoeste 0 -- -- 81
2018-01-15 18:00:00 6.9 9 Sudoeste 17 Sudoeste 0 -- -- 80
2018-01-15 17:00:00 8.4 5 Oeste 17 Oeste 0 -- -- 75
2018-01-15 16:00:00 9 9 Oeste 24 Oeste 0 -- -- 74
2018-01-15 15:00:00 9.1 11 Oeste 23 Sudoeste 0 -- -- 72
2018-01-15 14:00:00 8.8 12 Oeste 21 Oeste 0 -- -- 76
2018-01-15 13:00:00 8.2 6 Noroeste 14 Oeste 0 -- -- 80
2018-01-15 12:00:00 6.4 2 Noroeste 6 Oeste 0 -- -- 89
2018-01-15 11:00:00 3.7 4 Oeste 9 Sudoeste 0 -- -- 94
2018-01-15 10:00:00 1.5 3 Noroeste 6 Norte 0 -- -- 96
2018-01-15 09:00:00 -0.1 2 Noroeste 4 Norte 0 -- -- 96
2018-01-15 08:00:00 0.1 0 Calma 7 Oeste 0 -- -- 95
2018-01-15 07:00:00 0.3 0 Calma 11 Noroeste 0 -- -- 94
2018-01-15 06:00:00 1 4 Noroeste 10 Noroeste 0 -- -- 94
2018-01-15 05:00:00 1.1 4 Noroeste 13 Noroeste 0 -- -- 94
2018-01-15 04:00:00 1.5 5 Noroeste 10 Noroeste 0 -- -- 94
2018-01-15 03:00:00 2 4 Oeste 17 Oeste 0 -- -- 93
2018-01-15 02:00:00 2.8 10 Oeste 17 Oeste 0 -- -- 93
2018-01-15 01:00:00 2.9 10 Noroeste 26 Oeste 0 -- -- 91
2018-01-15 00:00:00 3.7 15 Oeste 24 Oeste 0 -- -- 90
2018-01-14 23:00:00 3.6 14 Noroeste 22 Noroeste 0 -- -- 91
2018-01-14 22:00:00 4.3 10 Noroeste 22 Noroeste 0 -- -- 89
2018-01-14 21:00:00 5.3 15 Oeste 27 Noroeste 0 -- -- 87
2018-01-14 20:00:00 5.5 15 Oeste 31 Noroeste 0 -- -- 87
2018-01-14 19:00:00 5.5 8 Oeste 21 Oeste 0 -- -- 86
2018-01-14 18:00:00 6 13 Oeste 33 Oeste 0 -- -- 82
2018-01-14 17:00:00 6.4 17 Oeste 33 Oeste 0 -- -- 81
2018-01-14 16:00:00 7.3 24 Oeste 41 Oeste 0 -- -- 81
2018-01-14 15:00:00 6.2 23 Oeste 40 Oeste 0 -- -- 85
2018-01-14 14:00:00 6.1 23 Oeste 38 Oeste 0 -- -- 86
2018-01-14 13:00:00 6.1 23 Oeste 40 Oeste 0 -- -- 87
2018-01-14 12:00:00 5.1 18 Oeste 36 Oeste 0 -- -- 92
2018-01-14 11:00:00 4.6 18 Oeste 33 Oeste 0 -- -- 94
2018-01-14 10:00:00 3.7 15 Oeste 28 Oeste 0 -- -- 96
2018-01-14 09:00:00 3 11 Oeste 24 Oeste 0 -- -- 96
2018-01-14 08:00:00 3.1 9 Oeste 21 Oeste 0 -- -- 96
2018-01-14 07:00:00 3.1 11 Oeste 24 Oeste 0.2 -- -- 95
2018-01-14 06:00:00 3.1 11 Oeste 21 Oeste 0 -- -- 95
2018-01-14 05:00:00 3 6 Oeste 15 Sudoeste 0 -- -- 96
2018-01-14 04:00:00 2.8 5 Oeste 13 Oeste 0.2 -- -- 96
2018-01-14 03:00:00 3 9 Oeste 17 Oeste 0.4 -- -- 95
2018-01-14 02:00:00 3.3 8 Oeste 20 Oeste 1 -- -- 94
2018-01-14 01:00:00 4 6 Oeste 15 Oeste 1.6 -- -- 94
2018-01-14 00:00:00 4.4 4 Sudoeste 14 Sudoeste 3.2 -- -- 95
2018-01-13 23:00:00 4.8 6 Oeste 17 Sudoeste 2.6 -- -- 94
2018-01-13 22:00:00 5.4 5 Oeste 10 Sudoeste 1.6 -- -- 93
2018-01-13 21:00:00 5.3 7 Oeste 11 Sudoeste 0 -- -- 89
2018-01-13 20:00:00 5.7 0 Calma 5 Este 0 -- -- 86
2018-01-13 19:00:00 5.8 0 Calma 12 Este 0 -- -- 86
2018-01-13 18:00:00 6.3 6 Este 15 Este 0 -- -- 85
2018-01-13 17:00:00 7.3 10 Sudeste 24 Este 0 -- -- 82
2018-01-13 16:00:00 7.5 18 Este 28 Sudeste 0 -- -- 79
2018-01-13 15:00:00 7.1 19 Sudeste 28 Sudeste 0 -- -- 78
2018-01-13 14:00:00 5.5 15 Sudeste 26 Este 0 -- -- 83
2018-01-13 13:00:00 5.3 17 Este 26 Este 0 -- -- 82
2018-01-13 12:00:00 4.9 19 Sudeste 24 Sudeste 0 -- -- 84
2018-01-13 11:00:00 3 14 Este 20 Este 0 -- -- 96
2018-01-13 10:00:00 1 11 Este 18 Este 0 -- -- 97
2018-01-13 09:00:00 0.5 7 Este 14 Este 0 -- -- 97
2018-01-13 08:00:00 1.2 10 Este 18 Este 0 -- -- 97
2018-01-13 07:00:00 0.8 13 Este 19 Este 0 -- -- 97
2018-01-13 06:00:00 0.5 9 Este 19 Este 0 -- -- 95
2018-01-13 05:00:00 1 14 Este 20 Este 0 -- -- 94
2018-01-13 04:00:00 0.8 10 Este 15 Nordeste 0 -- -- 95
2018-01-13 03:00:00 0.9 8 Nordeste 11 Nordeste 0 -- -- 94
2018-01-13 02:00:00 1.8 8 Este 17 Este 0 -- -- 94
2018-01-13 01:00:00 1.8 9 Este 13 Este 0 -- -- 93
2018-01-13 00:00:00 2.4 2 Sudeste 13 Este 0 -- -- 90
2018-01-12 23:00:00 3.2 7 Este 14 Sudeste 0 -- -- 90
2018-01-12 22:00:00 3.2 8 Este 12 Este 0 -- -- 89
2018-01-12 21:00:00 4.2 9 Nordeste 11 Nordeste 0 -- -- 87
2018-01-12 20:00:00 5.4 6 Sudoeste 14 Sudoeste 0 -- -- 84
2018-01-12 19:00:00 6.1 11 Sudoeste 27 Oeste 0 -- -- 81
2018-01-12 18:00:00 7.5 15 Oeste 31 Oeste 0 -- -- 79
2018-01-12 17:00:00 9.6 17 Oeste 38 Oeste 0 -- -- 69
2018-01-12 16:00:00 11 15 Oeste 37 Oeste 0 -- -- 65
2018-01-12 15:00:00 10.5 22 Oeste 46 Oeste 0 -- -- 70
2018-01-12 14:00:00 10.3 26 Oeste 46 Oeste 0 -- -- 72
2018-01-12 13:00:00 9.6 26 Oeste 47 Oeste 0 -- -- 76
2018-01-12 12:00:00 8.5 31 Noroeste 44 Noroeste 0 -- -- 81
2018-01-12 11:00:00 7.2 26 Noroeste 44 Oeste 0 -- -- 86
2018-01-12 10:00:00 4.8 15 Oeste 26 Oeste 0 -- -- 92
2018-01-12 09:00:00 3.2 14 Oeste 25 Oeste 0 -- -- 93
2018-01-12 08:00:00 2.7 15 Noroeste 35 Oeste 0 -- -- 91
2018-01-12 07:00:00 2.8 14 Oeste 42 Oeste 0 -- -- 92
2018-01-12 06:00:00 2.8 24 Oeste 36 Oeste 0 -- -- 93
2018-01-12 05:00:00 2.1 9 Oeste 23 Oeste 0 -- -- 93
2018-01-12 04:00:00 1.9 12 Oeste 26 Noroeste 0 -- -- 94
2018-01-12 03:00:00 2 20 Noroeste 29 Oeste 0 -- -- 94
2018-01-12 02:00:00 1.9 11 Oeste 33 Oeste 0 -- -- 95
2018-01-12 01:00:00 2.3 20 Oeste 41 Oeste 0 -- -- 94
2018-01-12 00:00:00 2.5 22 Oeste 40 Oeste 0 -- -- 93
2018-01-11 23:00:00 2.8 28 Oeste 41 Oeste 0 -- -- 92
2018-01-11 22:00:00 2.8 16 Oeste 35 Oeste 0 -- -- 90
2018-01-11 21:00:00 3.5 12 Oeste 42 Oeste 0 -- -- 88
2018-01-11 20:00:00 3.8 10 Oeste 22 Oeste 0 -- -- 88
2018-01-11 19:00:00 4.5 9 Oeste 36 Oeste 0 -- -- 83
2018-01-11 18:00:00 5.1 22 Oeste 39 Oeste 0 -- -- 82
2018-01-11 17:00:00 6.5 27 Oeste 43 Oeste 0 -- -- 75
2018-01-11 16:00:00 7.1 24 Oeste 44 Oeste 0 -- -- 74
2018-01-11 15:00:00 8.6 25 Oeste 45 Noroeste 0 -- -- 67
2018-01-11 14:00:00 8.3 30 Oeste 49 Oeste 0 -- -- 66
2018-01-11 13:00:00 7.7 25 Oeste 46 Oeste 0.2 -- -- 68
2018-01-11 12:00:00 7.1 22 Oeste 40 Noroeste 0 -- -- 75
2018-01-11 11:00:00 4.8 11 Oeste 20 Oeste 0 -- -- 88
2018-01-11 10:00:00 1.9 0 Calma 16 Sudoeste 0 -- -- 91
2018-01-11 09:00:00 1.3 5 Sudoeste 12 Sudoeste 0 -- -- 91
2018-01-11 08:00:00 0.9 5 Oeste 12 Oeste 0 -- -- 92
2018-01-11 07:00:00 1.2 6 Oeste 16 Noroeste 0 -- -- 91
2018-01-11 06:00:00 0.9 7 Oeste 11 Sudoeste 0 -- -- 92
2018-01-11 05:00:00 1.7 6 Oeste 21 Sudoeste 0 -- -- 91
2018-01-11 04:00:00 2.4 15 Sudoeste 23 Sudoeste 0 -- -- 92
2018-01-11 03:00:00 2.8 9 Oeste 19 Sudoeste 0 -- -- 90
2018-01-11 02:00:00 3.4 11 Oeste 24 Sudoeste 0 -- -- 89
2018-01-11 01:00:00 4.7 10 Oeste 33 Oeste 0 -- -- 84
2018-01-11 00:00:00 5.2 7 Oeste 44 Noroeste 0 -- -- 84
2018-01-10 23:00:00 5.6 22 Noroeste 33 Oeste 0 -- -- 86
2018-01-10 22:00:00 4.7 4 Oeste 8 Oeste 0 -- -- 92
2018-01-10 21:00:00 6 3 Norte 12 Noroeste 0 -- -- 91
2018-01-10 20:00:00 6.5 3 Este 6 Este 0 -- -- 90
2018-01-10 19:00:00 6.9 2 Nordeste 4 Sur 0.4 -- -- 90
2018-01-10 18:00:00 7.7 3 Sudeste 10 Noroeste 0 -- -- 84
2018-01-10 17:00:00 8.5 6 Noroeste 15 Noroeste 0 -- -- 75
2018-01-10 16:00:00 9.2 4 Oeste 13 Oeste 0 -- -- 73
2018-01-10 15:00:00 9.6 10 Oeste 18 Sudoeste 0 -- -- 70
2018-01-10 14:00:00 9.2 9 Sudoeste 17 Sudoeste 0 -- -- 76
2018-01-10 13:00:00 7.9 10 Sudoeste 17 Sudoeste 0 -- -- 85
2018-01-10 12:00:00 5.9 10 Sudoeste 14 Sudoeste 0 -- -- 93
2018-01-10 11:00:00 4 5 Oeste 9 Oeste 0 -- -- 98
2018-01-10 10:00:00 1.9 4 Noroeste 6 Noroeste 0 -- -- 99
2018-01-10 09:00:00 0.6 3 Oeste 8 Noroeste 0 -- -- 98
2018-01-10 08:00:00 1.1 0 Calma 4 Noroeste 0 -- -- 97
2018-01-10 07:00:00 0.9 0 Calma 5 Oeste 0 -- -- 97
2018-01-10 06:00:00 0.9 3 Oeste 5 Sudoeste 0 -- -- 96
2018-01-10 05:00:00 1.9 0 Calma 3 Oeste 0 -- -- 96
2018-01-10 04:00:00 2.7 0 Calma 6 Nordeste 0 -- -- 96
2018-01-10 03:00:00 2.9 5 Nordeste 7 Nordeste 0 -- -- 97
2018-01-10 02:00:00 3 4 Este 8 Este 0 -- -- 97
2018-01-10 01:00:00 2.8 2 Este 7 Este 0 -- -- 97
2018-01-10 00:00:00 2.8 3 Este 9 Sudeste 0 -- -- 97
2018-01-09 23:00:00 3.3 5 Nordeste 11 Nordeste 0 -- -- 96
2018-01-09 22:00:00 3.2 5 Nordeste 9 Nordeste 0 -- -- 97
2018-01-09 21:00:00 3 8 Nordeste 10 Nordeste 0.8 -- -- 98
2018-01-09 20:00:00 2.5 3 Este 9 Este 0.2 -- -- 98
2018-01-09 19:00:00 2.3 8 Este 12 Este 0 -- -- 97
2018-01-09 18:00:00 2.4 8 Este 14 Este 0 -- -- 97
2018-01-09 17:00:00 3 12 Este 16 Este 0 -- -- 96
2018-01-09 16:00:00 3.1 12 Este 16 Este 0 -- -- 97
2018-01-09 15:00:00 2.6 13 Este 22 Sudeste 0 -- -- 97
2018-01-09 14:00:00 2.2 17 Sudeste 24 Sudeste 0 -- -- 97
2018-01-09 13:00:00 2.3 17 Este 24 Este 0 -- -- 97
2018-01-09 12:00:00 1.5 14 Este 21 Este 0 -- -- 98
2018-01-09 11:00:00 0.5 13 Este 18 Este 0.2 -- -- 98
2018-01-09 10:00:00 -1.2 5 Este 10 Este 0 -- -- 99
2018-01-09 09:00:00 -3.7 4 Este 5 Este 0 -- -- 98
2018-01-09 08:00:00 -4.2 2 Sudeste -- -- 0 -- -- 97
2018-01-09 07:00:00 -3.5 0 Calma 3 Noroeste 0 -- -- 97
2018-01-09 06:00:00 -3.1 0 Calma 3 Noroeste 0 -- -- 97
2018-01-09 05:00:00 -2.6 0 Calma 4 Este 0 -- -- 96
2018-01-09 04:00:00 -2.1 3 Este 9 Nordeste 0 -- -- 96
2018-01-09 03:00:00 -2.1 3 Nordeste 5 Nordeste 0 -- -- 96
2018-01-09 02:00:00 -1.6 0 Calma 2 Sudeste 0 -- -- 96
2018-01-09 01:00:00 -0.6 0 Calma 6 Noroeste 0 -- -- 95
2018-01-09 00:00:00 -0.2 3 Noroeste 7 Oeste 0 -- -- 94
2018-01-08 23:00:00 0.5 3 Oeste 6 Oeste 0 -- -- 94
2018-01-08 22:00:00 1.1 0 Calma 13 Oeste 0 -- -- 91
2018-01-08 21:00:00 2 8 Sudoeste 14 Oeste 0 -- -- 94
2018-01-08 20:00:00 2.5 6 Oeste 13 Oeste 0 -- -- 95
2018-01-08 19:00:00 2.5 7 Noroeste 11 Oeste 0 -- -- 94
2018-01-08 18:00:00 3.6 12 Oeste 21 Oeste 0 -- -- 93
2018-01-08 17:00:00 4.1 10 Oeste 23 Oeste 0 -- -- 93
2018-01-08 16:00:00 4.7 8 Oeste 22 Sudoeste 0 -- -- 97
2018-01-08 15:00:00 4.4 8 Oeste 25 Sudoeste 0 -- -- 99
2018-01-08 14:00:00 3.6 11 Oeste 24 Noroeste 0 -- -- 99
2018-01-08 13:00:00 3.3 12 Oeste 22 Oeste 0 -- -- 99
2018-01-08 12:00:00 3.1 9 Oeste 23 Oeste 0 -- -- 99
2018-01-08 11:00:00 2.8 11 Oeste 24 Noroeste 0 -- -- 99
2018-01-08 10:00:00 2.8 10 Oeste 22 Oeste 0 -- -- 99
2018-01-08 09:00:00 2.9 6 Oeste 15 Oeste 0 -- -- 99
2018-01-08 08:00:00 2.5 7 Oeste 16 Oeste 0 -- -- 99
2018-01-08 07:00:00 2.2 5 Oeste 12 Oeste 0 -- -- 98
2018-01-08 06:00:00 1.9 5 Oeste 11 Oeste 0 -- -- 98
2018-01-08 05:00:00 1.5 3 Oeste 8 Noroeste 0 -- -- 98
2018-01-08 04:00:00 1.5 5 Noroeste 9 Noroeste 0 -- -- 97
2018-01-08 03:00:00 1.1 0 Calma 5 Sudoeste 0 -- -- 97
2018-01-08 02:00:00 2 0 Calma 3 Noroeste 0 -- -- 96
2018-01-08 01:00:00 3.3 2 Noroeste 15 Noroeste 0 -- -- 96
2018-01-08 00:00:00 4.1 8 Oeste 15 Oeste 0 -- -- 97
2018-01-07 23:00:00 4.1 8 Sudoeste 13 Sudoeste 0 -- -- 97
2018-01-07 22:00:00 4.6 3 Oeste 6 Sudoeste 0 -- -- 97
2018-01-07 21:00:00 4.3 4 Oeste 8 Oeste 0 -- -- 96
2018-01-07 20:00:00 5.1 3 Noroeste 5 Oeste 0 -- -- 95
2018-01-07 19:00:00 5.7 3 Oeste 6 Oeste 0 -- -- 94
2018-01-07 18:00:00 6.3 2 Norte 10 Sudeste 0 -- -- 94
2018-01-07 17:00:00 6.8 8 Sudeste 21 Sudeste 0 -- -- 93
2018-01-07 16:00:00 7.1 15 Sudeste 23 Sudeste 0 -- -- 93
2018-01-07 15:00:00 6.6 14 Sudeste 21 Sudeste 0 -- -- 95
2018-01-07 14:00:00 6.3 16 Sudeste 22 Sudeste 0 -- -- 96
2018-01-07 13:00:00 6.1 13 Sudeste 21 Sudeste 0 -- -- 98
2018-01-07 12:00:00 5.9 12 Sudeste 22 Este 0 -- -- 98
2018-01-07 11:00:00 5.6 13 Este 19 Este 0 -- -- 98
2018-01-07 10:00:00 4.7 6 Sudeste 9 Sudeste 1.6 -- -- 98
2018-01-07 09:00:00 3.6 0 Calma 3 Norte 0.6 -- -- 98
2018-01-07 08:00:00 3.1 2 Noroeste 8 Norte 0.2 -- -- 98
2018-01-07 07:00:00 2.8 3 Noroeste 10 Oeste 2 -- -- 98
2018-01-07 06:00:00 2.8 4 Oeste 12 Noroeste 0 -- -- 98
2018-01-07 05:00:00 2.7 10 Noroeste 15 Oeste 0.4 -- -- 98
2018-01-07 04:00:00 3 7 Oeste 13 Sudoeste 0.2 -- -- 98
2018-01-07 03:00:00 3.1 5 Oeste 12 Oeste 0.2 -- -- 98
2018-01-07 02:00:00 3.4 7 Oeste 16 Norte 0.2 -- -- 98
2018-01-07 01:00:00 3.1 10 Noroeste 21 Sudoeste 0.4 -- -- 98
2018-01-07 00:00:00 2.6 6 Sudoeste 24 Noroeste 2.4 -- -- 98
2018-01-06 23:00:00 2.2 16 Noroeste 29 Oeste 8.4 -- -- 98
2018-01-06 22:00:00 2.3 18 Oeste 29 Noroeste 4.8 -- -- 98
2018-01-06 21:00:00 2.4 19 Noroeste 31 Noroeste 4 -- -- 97
2018-01-06 20:00:00 3 18 Noroeste 26 Noroeste 4.6 -- -- 97
2018-01-06 19:00:00 4 12 Noroeste 20 Noroeste 2.6 -- -- 96
2018-01-06 18:00:00 5.2 11 Noroeste 21 Sudoeste 0.8 -- -- 96
2018-01-06 17:00:00 6.3 9 Noroeste 13 Noroeste 0.6 -- -- 95
2018-01-06 16:00:00 7.1 7 Noroeste 14 Oeste 0.4 -- -- 93
2018-01-06 15:00:00 7.4 5 Noroeste 12 Sudeste 0 -- -- 91
2018-01-06 14:00:00 7 0 Calma 8 Norte 0 -- -- 93
2018-01-06 13:00:00 6.3 3 Noroeste 8 Noroeste 0 -- -- 94
2018-01-06 12:00:00 5.7 3 Noroeste 12 Noroeste 0 -- -- 95
2018-01-06 11:00:00 5.2 9 Noroeste 13 Oeste 0 -- -- 95
2018-01-06 10:00:00 5.3 5 Oeste 12 Oeste 0 -- -- 95
2018-01-06 09:00:00 5.4 8 Noroeste 12 Noroeste 0 -- -- 95
2018-01-06 08:00:00 5.7 7 Noroeste 18 Noroeste 0 -- -- 93
2018-01-06 07:00:00 7.6 0 Calma 14 Sudoeste 0 -- -- 93
2018-01-06 06:00:00 7.9 12 Sudeste 19 Este 0.4 -- -- 94
2018-01-06 05:00:00 8.3 16 Este 27 Este 0.2 -- -- 92
2018-01-06 04:00:00 8.6 13 Este 18 Este 1 -- -- 92
2018-01-06 03:00:00 8.7 8 Nordeste 18 Este 0.6 -- -- 91
2018-01-06 02:00:00 9.1 8 Este 19 Este 0.6 -- -- 89
2018-01-06 01:00:00 9.5 10 Este 19 Nordeste 0 -- -- 84
2018-01-06 00:00:00 9.7 9 Nordeste 14 Nordeste 0.2 -- -- 84
2018-01-05 23:00:00 11.3 2 Sur 11 Sudoeste 0 -- -- 69
2018-01-05 22:00:00 11.2 10 Sudoeste 18 Sudoeste 0 -- -- 70
2018-01-05 21:00:00 11.3 6 Sudoeste 12 Sudoeste 0 -- -- 69
2018-01-05 20:00:00 11.7 6 Sudoeste 9 Oeste 0 -- -- 69
2018-01-05 19:00:00 12.5 9 Sudoeste 27 Sudoeste 0 -- -- 65
2018-01-05 18:00:00 13.1 11 Sudoeste 18 Sur 0 -- -- 64
2018-01-05 17:00:00 14 4 Este 9 Sudoeste 0 -- -- 61
2018-01-05 16:00:00 14.5 8 Sudoeste 20 Sudoeste 0 -- -- 56
2018-01-05 15:00:00 15.6 9 Oeste 22 Oeste 0 -- -- 53
2018-01-05 14:00:00 15.1 9 Sudoeste 19 Sudoeste 0 -- -- 54
2018-01-05 13:00:00 13.6 10 Sudoeste 20 Sur 0 -- -- 64
2018-01-05 12:00:00 12.1 3 Sudeste 8 Este 0 -- -- 72
2018-01-05 11:00:00 9.1 5 Este 7 Este 0 -- -- 88
2018-01-05 10:00:00 6 0 Calma 5 Sudeste 0 -- -- 93
2018-01-05 09:00:00 4.6 2 Norte 6 Norte 0 -- -- 92
2018-01-05 08:00:00 4.2 0 Calma 5 Norte 0 -- -- 89
2018-01-05 07:00:00 5.9 5 Nordeste 8 Nordeste 0 -- -- 92
2018-01-05 06:00:00 5 5 Este 8 Este 0 -- -- 93
2018-01-05 05:00:00 3.7 3 Norte 10 Sudoeste 0 -- -- 90
2018-01-05 04:00:00 5.1 3 Norte 8 Norte 0 -- -- 89
2018-01-05 03:00:00 5.3 0 Calma 3 Norte 0 -- -- 86
2018-01-05 02:00:00 7 0 Calma 5 Sudeste 0 -- -- 85
2018-01-05 01:00:00 7.6 3 Sudoeste 13 Noroeste 0 -- -- 80
2018-01-05 00:00:00 8.4 9 Noroeste 13 Noroeste 0 -- -- 79
2018-01-04 23:00:00 9.7 11 Noroeste 20 Oeste 0 -- -- 75
2018-01-04 22:00:00 10.7 10 Oeste 21 Noroeste 0 -- -- 73
2018-01-04 21:00:00 10.5 14 Noroeste 23 Noroeste 0 -- -- 74
2018-01-04 20:00:00 11.4 9 Oeste 18 Oeste 0 -- -- 75
2018-01-04 19:00:00 11.9 5 Oeste 14 Sudoeste 0 -- -- 73
2018-01-04 18:00:00 13.9 13 Sudoeste 19 Sudoeste 0 -- -- 72
2018-01-04 17:00:00 15.8 8 Oeste 27 Oeste 0 -- -- 65
2018-01-04 16:00:00 17.1 15 Oeste 31 Oeste 0 -- -- 61
2018-01-04 15:00:00 17.3 15 Oeste 30 Oeste 0 -- -- 60
2018-01-04 14:00:00 17.4 18 Oeste 36 Oeste 0 -- -- 59
2018-01-04 13:00:00 16.7 18 Oeste 32 Oeste 0 -- -- 65
2018-01-04 12:00:00 15.3 17 Oeste 27 Sudoeste 0 -- -- 72
2018-01-04 11:00:00 14.2 13 Oeste 30 Oeste 0 -- -- 76
2018-01-04 10:00:00 12 10 Oeste 14 Oeste 0 -- -- 88
2018-01-04 09:00:00 9.6 9 Oeste 16 Oeste 0 -- -- 91
2018-01-04 08:00:00 10.2 6 Oeste 18 Oeste 0 -- -- 89
2018-01-04 07:00:00 10.6 11 Oeste 21 Sudoeste 0 -- -- 88
2018-01-04 06:00:00 10.9 17 Sudoeste 22 Sudoeste 0 -- -- 90
2018-01-04 05:00:00 10.9 6 Oeste 26 Oeste 0 -- -- 89
2018-01-04 04:00:00 11.9 16 Oeste 28 Oeste 0 -- -- 87
2018-01-04 03:00:00 12 11 Oeste 25 Oeste 0 -- -- 88
2018-01-04 02:00:00 12.7 17 Oeste 30 Oeste 0 -- -- 87
2018-01-04 01:00:00 13.2 12 Oeste 23 Oeste 0 -- -- 86
2018-01-04 00:00:00 13.5 10 Oeste 23 Oeste 0 -- -- 85
2018-01-03 23:00:00 14 14 Oeste 26 Oeste 0 -- -- 83
2018-01-03 22:00:00 13.7 10 Oeste 21 Oeste 0 -- -- 84
2018-01-03 21:00:00 13.4 8 Oeste 19 Oeste 0 -- -- 84
2018-01-03 20:00:00 13.8 8 Oeste 19 Sudoeste 0 -- -- 83
2018-01-03 19:00:00 14 10 Oeste 20 Oeste 0 -- -- 82
2018-01-03 18:00:00 14.6 9 Oeste 22 Oeste 0 -- -- 80
2018-01-03 17:00:00 15.5 9 Oeste 25 Oeste 0 -- -- 78
2018-01-03 16:00:00 17.3 16 Oeste 34 Oeste 0 -- -- 72
2018-01-03 15:00:00 18.2 19 Oeste 43 Oeste 0 -- -- 67
2018-01-03 14:00:00 18.2 27 Oeste 44 Oeste 0 -- -- 66
2018-01-03 13:00:00 17 19 Oeste 36 Sudoeste 0 -- -- 73
2018-01-03 12:00:00 15.2 20 Oeste 35 Oeste 0 -- -- 79
2018-01-03 11:00:00 13.2 16 Oeste 27 Oeste 0 -- -- 84
2018-01-03 10:00:00 11.4 13 Oeste 22 Oeste 0 -- -- 88
2018-01-03 09:00:00 9.8 8 Oeste 21 Oeste 0 -- -- 92
2018-01-03 08:00:00 10.3 6 Oeste 21 Oeste 0 -- -- 88
2018-01-03 07:00:00 10.4 7 Oeste 17 Oeste 0 -- -- 89
2018-01-03 06:00:00 10.5 12 Noroeste 27 Oeste 0 -- -- 88
2018-01-03 05:00:00 10.6 14 Oeste 26 Oeste 0 -- -- 88
2018-01-03 04:00:00 10.8 17 Oeste 32 Oeste 0 -- -- 88
2018-01-03 03:00:00 10.3 19 Oeste 32 Noroeste 0 -- -- 90
2018-01-03 02:00:00 10.1 13 Oeste 22 Oeste 0 -- -- 90
2018-01-03 01:00:00 10.4 8 Oeste 22 Oeste 0 -- -- 87
2018-01-03 00:00:00 11.3 14 Oeste 25 Noroeste 0 -- -- 86
2018-01-02 23:00:00 11.4 19 Noroeste 30 Noroeste 0 -- -- 84
2018-01-02 22:00:00 12.2 23 Oeste 34 Oeste 0 -- -- 81
2018-01-02 21:00:00 11.5 17 Oeste 36 Oeste 0 -- -- 85
2018-01-02 20:00:00 11.2 21 Oeste 28 Oeste 0 -- -- 87
2018-01-02 19:00:00 11.7 12 Noroeste 30 Oeste 0 -- -- 85
2018-01-02 18:00:00 11.6 12 Oeste 29 Oeste 0 -- -- 84
2018-01-02 17:00:00 11.9 13 Oeste 38 Sudoeste 0 -- -- 84
2018-01-02 16:00:00 12.4 16 Oeste 38 Oeste 0 -- -- 82
2018-01-02 15:00:00 12.9 18 Oeste 40 Oeste 0 -- -- 78
2018-01-02 14:00:00 12.5 19 Oeste 44 Noroeste 0 -- -- 79
2018-01-02 13:00:00 12 21 Oeste 41 Oeste 0 -- -- 79
2018-01-02 12:00:00 10.8 17 Oeste 35 Oeste 0 -- -- 84
2018-01-02 11:00:00 8.8 11 Oeste 26 Oeste 0 -- -- 90
2018-01-02 10:00:00 8.2 13 Oeste 28 Oeste 0 -- -- 89
2018-01-02 09:00:00 7.8 12 Oeste 27 Sudoeste 0 -- -- 87
2018-01-02 08:00:00 7.6 16 Oeste 26 Sudoeste 0 -- -- 89
2018-01-02 07:00:00 7.2 15 Sudoeste 27 Sudoeste 0 -- -- 91
2018-01-02 06:00:00 7.5 13 Oeste 31 Oeste 0 -- -- 90
2018-01-02 05:00:00 7.4 11 Oeste 23 Oeste 0 -- -- 91
2018-01-02 04:00:00 7.3 11 Oeste 19 Oeste 0 -- -- 91
2018-01-02 03:00:00 7.6 9 Oeste 19 Oeste 0 -- -- 91
2018-01-02 02:00:00 7.9 10 Oeste 19 Oeste 0 -- -- 90
2018-01-02 01:00:00 8.5 10 Oeste 24 Oeste 0 -- -- 86
2018-01-02 00:00:00 8.6 11 Oeste 24 Oeste 0 -- -- 91
2018-01-01 23:00:00 8.9 13 Oeste 28 Oeste 0 -- -- 92
2018-01-01 22:00:00 9 18 Oeste 37 Oeste 0.6 -- -- 92
2018-01-01 21:00:00 8.7 12 Oeste 24 Oeste 0.2 -- -- 91
2018-01-01 20:00:00 8.3 12 Oeste 24 Oeste 0.4 -- -- 92
2018-01-01 19:00:00 8.4 13 Oeste 33 Oeste 1.2 -- -- 90
2018-01-01 18:00:00 10.3 22 Oeste 38 Sudoeste 0.2 -- -- 74
2018-01-01 17:00:00 11.7 14 Oeste 28 Oeste 0 -- -- 64
2018-01-01 16:00:00 10.9 6 Norte 17 Noroeste 0 -- -- 65
2018-01-01 15:00:00 11 8 Noroeste 21 Noroeste 0 -- -- 63
2018-01-01 14:00:00 10.8 11 Noroeste 22 Noroeste 0 -- -- 63
2018-01-01 13:00:00 10.2 10 Oeste 16 Sudoeste 0 -- -- 64
2018-01-01 12:00:00 8.7 5 Sudoeste 14 Sudoeste 0 -- -- 68
2018-01-01 11:00:00 6.3 8 Sudoeste 14 Sudoeste 0 -- -- 80
2018-01-01 10:00:00 3.2 7 Oeste 14 Oeste 0 -- -- 87
2018-01-01 09:00:00 2.1 8 Oeste 18 Sudoeste 0 -- -- 86
2018-01-01 08:00:00 2.4 15 Sudoeste 18 Sudoeste 0 -- -- 85
2018-01-01 07:00:00 2.7 12 Sudoeste 34 Sudoeste 0 -- -- 83
2018-01-01 06:00:00 2.2 20 Sudoeste 27 Sudoeste 0 -- -- 89
2018-01-01 05:00:00 3.2 15 Oeste 22 Noroeste 0 -- -- 84
2018-01-01 04:00:00 2.7 10 Oeste 17 Oeste 0 -- -- 89
2018-01-01 03:00:00 3.1 0 Calma 27 Oeste 0 -- -- 89
2018-01-01 02:00:00 4.4 17 Oeste 30 Oeste 0 -- -- 86
2018-01-01 01:00:00 4.4 19 Oeste 32 Oeste 0 -- -- 90
2018-01-01 00:00:00 5 17 Oeste 31 Oeste 0 -- -- 87
2017-12-31 23:00:00 5.5 16 Oeste 30 Oeste 0 -- -- 87
2017-12-31 22:00:00 6.2 9 Oeste 32 Noroeste 0 -- -- 88
2017-12-31 21:00:00 7.2 31 Noroeste 55 Noroeste 1.4 -- -- 88
2017-12-31 20:00:00 8.6 4 Norte 6 Noroeste 0.2 -- -- 91
2017-12-31 19:00:00 8.4 2 Norte 7 Sudeste 0 -- -- 91
2017-12-31 18:00:00 8.8 3 Sudeste 6 Sudeste 0 -- -- 89
2017-12-31 17:00:00 10.3 0 Calma 4 Sudoeste 0 -- -- 85
2017-12-31 16:00:00 10.2 3 Sudoeste 9 Sudeste 0 -- -- 86
2017-12-31 15:00:00 9 8 Sudeste 12 Sudeste 0 -- -- 89
2017-12-31 14:00:00 8.9 6 Este 11 Este 0 -- -- 91
2017-12-31 13:00:00 7.6 4 Este 9 Sudeste 0 -- -- 94
2017-12-31 12:00:00 6.6 5 Sudeste 12 Sudeste 0 -- -- 96
2017-12-31 11:00:00 5.7 8 Sudeste 10 Sudeste 0 -- -- 95
2017-12-31 10:00:00 5 8 Este 13 Este 0 -- -- 95
2017-12-31 09:00:00 3.3 3 Nordeste 9 Este 0 -- -- 96
2017-12-31 08:00:00 3.3 4 Este 10 Este 0 -- -- 95
2017-12-31 07:00:00 2.3 3 Nordeste 8 Sudoeste 0 -- -- 95
2017-12-31 06:00:00 2.8 6 Nordeste 11 Nordeste 0 -- -- 96
2017-12-31 05:00:00 2.9 6 Nordeste 8 Nordeste 0 -- -- 96
2017-12-31 04:00:00 1.9 3 Nordeste 14 Sudeste 0 -- -- 94
2017-12-31 03:00:00 3 0 Calma 5 Norte 0 -- -- 95
2017-12-31 02:00:00 3.6 5 Norte 7 Oeste 0 -- -- 94
2017-12-31 01:00:00 3.8 5 Noroeste 8 Noroeste 0 -- -- 94